Hovedside
METAR-TAF:

METAR-TAF

Lufthavner :

Baker City, Oregon, USA

breddegrad: 44-50-14N, lengdegrad: 117-48-33W, høyde over havet: 1028 m

Gjeldene værobservasjon

Denne rapporten ble laget for 1 time og 7 minutter siden, klokken 15:53 UTC
Flau vind
Temperatur 3°C
Luftfuktighet 81%
Trykk 1029 hPa
Sikt: 12.9 km
Skyfri himmel

METAR: KBKE 191553Z AUTO 00000KT 8SM CLR 03/00 A3039 RMK AO2 SLP306 T00330000

Tid: 10:00 (17:00 UTC)

Varsel

Denne rapporten ble laget for 5 timer og 34 minutter siden, klokken 11:26 UTC
Varsel gyldig fra 19. klokken 12 UTC til 20. klokken 12 UTC
Vind 3 kt fra skiftende retning
Sikt: 8.0 km
Skyfri himmel
dis
Fra 19. klokken 1700 UTC
Vind 6 kt fra skiftende retning
Sikt: 10 km
Skyfri himmel
Fra 20. klokken 0600 UTC
Vind 3 kt fra skiftende retning
Sikt: 8.0 km
Skyfri himmel
dis

TAF: KBKE 191126Z 1912/2012 VRB03KT 5SM BR SKC FM191700 VRB06KT P6SM SKC FM200600 VRB03KT 5SM BR SKC

Værobservasjoner og værvarsel for over 4000 flyplasser (METAR- og TAF-rapporter).

Tilgjengelige stasjoner er representert av de røde og gule prikkene på kartet.

Hold musepekeren over prikken for å se navnet på stasjonen.

Klikk så for å se værobservasjoner og -varsler.

For å forandre kartet kan du klikke på den grønne knappen med svart kryss for å zoome inn, på den grønne knappen med strek for å zoome ut, eller på de grønne pilene for å se tilstøtende kart.


METAR-TAF: